sensor_id;sensor_type;location;lat;lon;timestamp;pressure;altitude;pressure_sealevel;temperature;humidity
51359;BME280;37448;51.588;7.248;2023-02-26T00:00:22;101078.63;;;-1.81;85.15
51359;BME280;37448;51.588;7.248;2023-02-26T00:02:23;101087.06;;;-1.82;83.61
51359;BME280;37448;51.588;7.248;2023-02-26T00:04:24;101090.59;;;-1.80;83.32
51359;BME280;37448;51.588;7.248;2023-02-26T00:06:25;101091.41;;;-1.81;84.45
51359;BME280;37448;51.588;7.248;2023-02-26T00:08:26;101098.28;;;-1.80;82.16
51359;BME280;37448;51.588;7.248;2023-02-26T00:10:26;101096.53;;;-1.81;82.97
51359;BME280;37448;51.588;7.248;2023-02-26T00:12:27;101096.53;;;-1.81;81.93
51359;BME280;37448;51.588;7.248;2023-02-26T00:14:28;101098.31;;;-1.78;83.60
51359;BME280;37448;51.588;7.248;2023-02-26T00:16:32;101094.91;;;-1.79;84.08
51359;BME280;37448;51.588;7.248;2023-02-26T00:18:33;101086.28;;;-1.81;81.97
51359;BME280;37448;51.588;7.248;2023-02-26T00:20:35;101087.06;;;-1.82;83.12
51359;BME280;37448;51.588;7.248;2023-02-26T00:22:36;101090.47;;;-1.83;83.58
51359;BME280;37448;51.588;7.248;2023-02-26T00:24:37;101077.78;;;-1.80;83.04
51359;BME280;37448;51.588;7.248;2023-02-26T00:26:37;101086.22;;;-1.82;85.10
51359;BME280;37448;51.588;7.248;2023-02-26T00:28:38;101094.19;;;-1.75;82.52
51359;BME280;37448;51.588;7.248;2023-02-26T00:30:38;101092.06;;;-1.62;79.81
51359;BME280;37448;51.588;7.248;2023-02-26T00:32:39;101090.47;;;-1.59;79.62
51359;BME280;37448;51.588;7.248;2023-02-26T00:34:40;101097.41;;;-1.56;80.21
51359;BME280;37448;51.588;7.248;2023-02-26T00:39:08;101093.34;;;-1.49;79.19
51359;BME280;37448;51.588;7.248;2023-02-26T00:41:14;101098.75;;;-1.41;77.06
51359;BME280;37448;51.588;7.248;2023-02-26T00:43:20;101108.91;;;-1.45;79.41
51359;BME280;37448;51.588;7.248;2023-02-26T00:45:24;101107.38;;;-1.39;80.22
51359;BME280;37448;51.588;7.248;2023-02-26T00:51:51;101121.44;;;-1.28;77.77
51359;BME280;37448;51.588;7.248;2023-02-26T00:54:17;101123.28;;;-1.24;78.21
51359;BME280;37448;51.588;7.248;2023-02-26T00:56:18;101116.44;;;-1.25;77.34
51359;BME280;37448;51.588;7.248;2023-02-26T00:58:18;101128.53;;;-1.21;77.52
51359;BME280;37448;51.588;7.248;2023-02-26T01:00:20;101124.16;;;-1.23;77.71
51359;BME280;37448;51.588;7.248;2023-02-26T01:02:21;101126.78;;;-1.22;76.48
51359;BME280;37448;51.588;7.248;2023-02-26T01:04:22;101128.41;;;-1.24;77.69
51359;BME280;37448;51.588;7.248;2023-02-26T01:06:27;101136.94;;;-1.25;77.61
51359;BME280;37448;51.588;7.248;2023-02-26T01:09:02;101132.75;;;-1.21;74.85
51359;BME280;37448;51.588;7.248;2023-02-26T01:11:05;101135.19;;;-1.26;78.60
51359;BME280;37448;51.588;7.248;2023-02-26T01:13:05;101135.19;;;-1.26;75.59
51359;BME280;37448;51.588;7.248;2023-02-26T01:15:07;101131.72;;;-1.26;76.27
51359;BME280;37448;51.588;7.248;2023-02-26T01:17:22;101136.81;;;-1.28;75.96
51359;BME280;37448;51.588;7.248;2023-02-26T01:21:59;101142.59;;;-1.34;74.96
51359;BME280;37448;51.588;7.248;2023-02-26T01:24:04;101146.72;;;-1.37;76.95
51359;BME280;37448;51.588;7.248;2023-02-26T01:26:15;101146.59;;;-1.42;78.59
51359;BME280;37448;51.588;7.248;2023-02-26T01:28:19;101150.72;;;-1.46;74.89
51359;BME280;37448;51.588;7.248;2023-02-26T01:30:20;101151.44;;;-1.50;78.48
51359;BME280;37448;51.588;7.248;2023-02-26T01:32:29;101154.72;;;-1.54;76.45
51359;BME280;37448;51.588;7.248;2023-02-26T01:34:45;101152.81;;;-1.58;76.68
51359;BME280;37448;51.588;7.248;2023-02-26T01:36:57;101149.22;;;-1.63;76.44
51359;BME280;37448;51.588;7.248;2023-02-26T01:39:09;101156.09;;;-1.62;75.38
51359;BME280;37448;51.588;7.248;2023-02-26T01:48:52;101165.78;;;-1.78;76.43
51359;BME280;37448;51.588;7.248;2023-02-26T01:50:53;101167.56;;;-1.75;74.33
51359;BME280;37448;51.588;7.248;2023-02-26T01:55:00;101181.16;;;-1.78;76.11
51359;BME280;37448;51.588;7.248;2023-02-26T01:57:20;101171.88;;;-1.74;74.25
51359;BME280;37448;51.588;7.248;2023-02-26T01:59:21;101174.41;;;-1.76;73.69
51359;BME280;37448;51.588;7.248;2023-02-26T02:01:23;101171.66;;;-1.80;74.25
51359;BME280;37448;51.588;7.248;2023-02-26T02:03:25;101181.69;;;-1.86;78.65
51359;BME280;37448;51.588;7.248;2023-02-26T02:05:46;101174.56;;;-1.94;77.56
51359;BME280;37448;51.588;7.248;2023-02-26T02:07:49;101181.25;;;-1.97;77.35
51359;BME280;37448;51.588;7.248;2023-02-26T02:09:49;101177.78;;;-1.99;77.14
51359;BME280;37448;51.588;7.248;2023-02-26T02:18:47;101182.47;;;-2.10;77.66
51359;BME280;37448;51.588;7.248;2023-02-26T02:23:29;101184.81;;;-2.17;77.39
51359;BME280;37448;51.588;7.248;2023-02-26T02:33:17;101202.53;;;-2.21;76.92
51359;BME280;37448;51.588;7.248;2023-02-26T02:35:41;101204.31;;;-2.19;75.97
51359;BME280;37448;51.588;7.248;2023-02-26T02:38:06;101202.63;;;-2.18;75.35
51359;BME280;37448;51.588;7.248;2023-02-26T02:40:14;101218.69;;;-2.22;76.37
51359;BME280;37448;51.588;7.248;2023-02-26T02:42:22;101211.94;;;-2.20;77.36
51359;BME280;37448;51.588;7.248;2023-02-26T02:44:25;101217.69;;;-2.26;78.37
51359;BME280;37448;51.588;7.248;2023-02-26T02:46:29;101222.91;;;-2.23;77.23
51359;BME280;37448;51.588;7.248;2023-02-26T02:48:32;101219.38;;;-2.26;77.51
51359;BME280;37448;51.588;7.248;2023-02-26T02:50:40;101216.69;;;-2.29;77.00
51359;BME280;37448;51.588;7.248;2023-02-26T02:53:05;101231.09;;;-2.32;79.39
51359;BME280;37448;51.588;7.248;2023-02-26T02:55:15;101236.09;;;-2.35;79.65
51359;BME280;37448;51.588;7.248;2023-02-26T02:57:24;101233.41;;;-2.38;78.77
51359;BME280;37448;51.588;7.248;2023-02-26T02:59:48;101232.47;;;-2.40;79.12
51359;BME280;37448;51.588;7.248;2023-02-26T03:02:07;101233.16;;;-2.44;81.86
51359;BME280;37448;51.588;7.248;2023-02-26T03:04:14;101237.41;;;-2.45;80.76
51359;BME280;37448;51.588;7.248;2023-02-26T03:06:16;101228.06;;;-2.44;79.93
51359;BME280;37448;51.588;7.248;2023-02-26T03:08:20;101239.09;;;-2.45;80.04
51359;BME280;37448;51.588;7.248;2023-02-26T03:10:21;101244.22;;;-2.45;80.26
51359;BME280;37448;51.588;7.248;2023-02-26T03:12:25;101240.28;;;-2.37;77.84
51359;BME280;37448;51.588;7.248;2023-02-26T03:14:26;101241.78;;;-2.42;80.13
51359;BME280;37448;51.588;7.248;2023-02-26T03:19:14;101246.78;;;-2.45;80.71
51359;BME280;37448;51.588;7.248;2023-02-26T03:21:33;101251.75;;;-2.48;81.81
51359;BME280;37448;51.588;7.248;2023-02-26T03:24:03;101249.22;;;-2.48;80.54
51359;BME280;37448;51.588;7.248;2023-02-26T03:26:13;101249.13;;;-2.50;79.87
51359;BME280;37448;51.588;7.248;2023-02-26T03:28:35;101253.22;;;-2.53;82.38
51359;BME280;37448;51.588;7.248;2023-02-26T03:30:47;101266.09;;;-2.52;81.55
51359;BME280;37448;51.588;7.248;2023-02-26T03:33:14;101262.69;;;-2.52;80.11
51359;BME280;37448;51.588;7.248;2023-02-26T03:35:23;101264.44;;;-2.51;80.19
51359;BME280;37448;51.588;7.248;2023-02-26T03:37:31;101270.19;;;-2.55;82.14
51359;BME280;37448;51.588;7.248;2023-02-26T03:39:42;101283.81;;;-2.56;79.08
51359;BME280;37448;51.588;7.248;2023-02-26T03:44:31;101283.41;;;-2.66;82.48
51359;BME280;37448;51.588;7.248;2023-02-26T03:46:36;101286.66;;;-2.70;82.32
51359;BME280;37448;51.588;7.248;2023-02-26T03:48:39;101290.28;;;-2.65;79.22
51359;BME280;37448;51.588;7.248;2023-02-26T03:50:43;101292.75;;;-2.66;78.85
51359;BME280;37448;51.588;7.248;2023-02-26T03:53:09;101293.66;;;-2.66;79.51
51359;BME280;37448;51.588;7.248;2023-02-26T03:55:25;101288.41;;;-2.69;79.17
51359;BME280;37448;51.588;7.248;2023-02-26T03:57:34;101294.13;;;-2.75;80.57
51359;BME280;37448;51.588;7.248;2023-02-26T04:00:06;101294.06;;;-2.76;80.99
51359;BME280;37448;51.588;7.248;2023-02-26T04:02:19;101299.84;;;-2.80;81.14
51359;BME280;37448;51.588;7.248;2023-02-26T04:04:34;101299.09;;;-2.78;80.24
51359;BME280;37448;51.588;7.248;2023-02-26T04:06:42;101303.19;;;-2.81;82.07
51359;BME280;37448;51.588;7.248;2023-02-26T04:08:43;101306.56;;;-2.82;81.64
51359;BME280;37448;51.588;7.248;2023-02-26T04:10:50;101311.69;;;-2.82;80.29
51359;BME280;37448;51.588;7.248;2023-02-26T04:12:52;101314.22;;;-2.82;80.38
51359;BME280;37448;51.588;7.248;2023-02-26T04:14:54;101318.53;;;-2.81;79.50
51359;BME280;37448;51.588;7.248;2023-02-26T04:16:55;101314.19;;;-2.84;80.59
51359;BME280;37448;51.588;7.248;2023-02-26T04:18:56;101316.66;;;-2.85;81.04
51359;BME280;37448;51.588;7.248;2023-02-26T04:20:56;101324.19;;;-2.89;82.52
51359;BME280;37448;51.588;7.248;2023-02-26T04:22:57;101329.56;;;-2.82;82.30
51359;BME280;37448;51.588;7.248;2023-02-26T04:24:57;101332.94;;;-2.64;79.67
51359;BME280;37448;51.588;7.248;2023-02-26T04:26:57;101330.78;;;-2.54;79.62
51359;BME280;37448;51.588;7.248;2023-02-26T04:28:58;101337.81;;;-2.50;78.51
51359;BME280;37448;51.588;7.248;2023-02-26T04:30:58;101342.13;;;-2.49;78.66
51359;BME280;37448;51.588;7.248;2023-02-26T04:32:59;101351.09;;;-2.38;80.07
51359;BME280;37448;51.588;7.248;2023-02-26T04:34:59;101349.03;;;-2.47;77.98
51359;BME280;37448;51.588;7.248;2023-02-26T04:37:01;101355.03;;;-2.46;78.51
51359;BME280;37448;51.588;7.248;2023-02-26T04:39:01;101354.91;;;-2.49;77.49
51359;BME280;37448;51.588;7.248;2023-02-26T04:41:04;101361.94;;;-2.43;79.72
51359;BME280;37448;51.588;7.248;2023-02-26T04:43:04;101354.22;;;-2.45;81.21
51359;BME280;37448;51.588;7.248;2023-02-26T04:45:10;101353.97;;;-2.51;78.13
51359;BME280;37448;51.588;7.248;2023-02-26T04:47:12;101367.69;;;-2.49;78.60
51359;BME280;37448;51.588;7.248;2023-02-26T04:49:13;101359.72;;;-2.55;78.01
51359;BME280;37448;51.588;7.248;2023-02-26T04:51:17;101365.78;;;-2.53;78.80
51359;BME280;37448;51.588;7.248;2023-02-26T04:53:17;101368.16;;;-2.58;78.41
51359;BME280;37448;51.588;7.248;2023-02-26T04:55:18;101370.63;;;-2.60;78.68
51359;BME280;37448;51.588;7.248;2023-02-26T04:57:18;101376.00;;;-2.53;80.73
51359;BME280;37448;51.588;7.248;2023-02-26T04:59:19;101373.31;;;-2.56;78.50
51359;BME280;37448;51.588;7.248;2023-02-26T05:01:19;101381.00;;;-2.56;79.38
51359;BME280;37448;51.588;7.248;2023-02-26T05:03:21;101384.38;;;-2.57;78.36
51359;BME280;37448;51.588;7.248;2023-02-26T05:05:21;101385.25;;;-2.57;78.77
51359;BME280;37448;51.588;7.248;2023-02-26T05:07:22;101378.13;;;-2.64;77.59
51359;BME280;37448;51.588;7.248;2023-02-26T05:09:23;101386.75;;;-2.62;77.54
51359;BME280;37448;51.588;7.248;2023-02-26T05:11:23;101392.72;;;-2.62;77.93
51359;BME280;37448;51.588;7.248;2023-02-26T05:13:24;101391.09;;;-2.60;78.87
51359;BME280;37448;51.588;7.248;2023-02-26T05:15:24;101394.47;;;-2.61;78.60
51359;BME280;37448;51.588;7.248;2023-02-26T05:17:25;101397.03;;;-2.61;79.37
51359;BME280;37448;51.588;7.248;2023-02-26T05:19:25;101392.13;;;-2.56;82.02
51359;BME280;37448;51.588;7.248;2023-02-26T05:21:25;101403.72;;;-2.64;79.34
51359;BME280;37448;51.588;7.248;2023-02-26T05:23:26;101396.50;;;-2.73;77.32
51359;BME280;37448;51.588;7.248;2023-02-26T05:25:27;101400.94;;;-2.69;78.07
51359;BME280;37448;51.588;7.248;2023-02-26T05:27:27;101406.31;;;-2.63;81.04
51359;BME280;37448;51.588;7.248;2023-02-26T05:29:28;101406.78;;;-2.71;77.45
51359;BME280;37448;51.588;7.248;2023-02-26T05:31:28;101404.44;;;-2.67;80.18
51359;BME280;37448;51.588;7.248;2023-02-26T05:33:29;101404.34;;;-2.68;80.76
51359;BME280;37448;51.588;7.248;2023-02-26T05:35:29;101409.41;;;-2.70;78.51
51359;BME280;37448;51.588;7.248;2023-02-26T05:37:29;101404.16;;;-2.73;79.24
51359;BME280;37448;51.588;7.248;2023-02-26T05:39:30;101407.38;;;-2.77;78.36
51359;BME280;37448;51.588;7.248;2023-02-26T05:41:30;101418.34;;;-2.80;77.92
51359;BME280;37448;51.588;7.248;2023-02-26T05:43:31;101421.84;;;-2.78;78.31
51359;BME280;37448;51.588;7.248;2023-02-26T05:45:32;101424.03;;;-2.85;77.02
51359;BME280;37448;51.588;7.248;2023-02-26T05:47:33;101417.44;;;-2.80;78.32
51359;BME280;37448;51.588;7.248;2023-02-26T05:49:34;101421.84;;;-2.78;80.25
51359;BME280;37448;51.588;7.248;2023-02-26T05:51:34;101422.28;;;-2.86;77.83
51359;BME280;37448;51.588;7.248;2023-02-26T05:53:34;101420.41;;;-2.91;77.13
51359;BME280;37448;51.588;7.248;2023-02-26T05:55:35;101430.78;;;-2.88;77.24
51359;BME280;37448;51.588;7.248;2023-02-26T05:57:35;101431.50;;;-2.90;78.68
51359;BME280;37448;51.588;7.248;2023-02-26T05:59:36;101431.66;;;-2.87;79.70
51359;BME280;37448;51.588;7.248;2023-02-26T06:01:38;101433.31;;;-2.88;78.79
51359;BME280;37448;51.588;7.248;2023-02-26T06:03:38;101442.31;;;-2.96;77.51
51359;BME280;37448;51.588;7.248;2023-02-26T06:05:43;101445.69;;;-2.97;78.02
51359;BME280;37448;51.588;7.248;2023-02-26T06:07:43;101458.63;;;-2.94;79.11
51359;BME280;37448;51.588;7.248;2023-02-26T06:09:44;101462.03;;;-2.93;79.61
51359;BME280;37448;51.588;7.248;2023-02-26T06:11:44;101465.81;;;-3.03;78.31
51359;BME280;37448;51.588;7.248;2023-02-26T06:13:45;101470.13;;;-3.02;78.14
51359;BME280;37448;51.588;7.248;2023-02-26T06:15:48;101477.81;;;-3.02;79.08
51359;BME280;37448;51.588;7.248;2023-02-26T06:17:48;101482.91;;;-3.02;78.28
51359;BME280;37448;51.588;7.248;2023-02-26T06:19:49;101476.22;;;-3.00;79.11
51359;BME280;37448;51.588;7.248;2023-02-26T06:21:49;101487.84;;;-3.07;77.46
51359;BME280;37448;51.588;7.248;2023-02-26T06:23:50;101487.88;;;-3.05;78.91
51359;BME280;37448;51.588;7.248;2023-02-26T06:25:51;101492.94;;;-3.07;78.58
51359;BME280;37448;51.588;7.248;2023-02-26T06:27:51;101492.13;;;-3.06;77.51
51359;BME280;37448;51.588;7.248;2023-02-26T06:29:52;101497.25;;;-3.06;77.82
51359;BME280;37448;51.588;7.248;2023-02-26T06:31:52;101506.59;;;-3.06;78.13
51359;BME280;37448;51.588;7.248;2023-02-26T06:33:52;101506.59;;;-3.06;78.38
51359;BME280;37448;51.588;7.248;2023-02-26T06:35:53;101511.84;;;-3.03;78.43
51359;BME280;37448;51.588;7.248;2023-02-26T06:37:55;101512.59;;;-3.06;78.27
51359;BME280;37448;51.588;7.248;2023-02-26T06:39:56;101519.50;;;-3.03;79.16
51359;BME280;37448;51.588;7.248;2023-02-26T06:41:56;101512.63;;;-3.04;79.25
51359;BME280;37448;51.588;7.248;2023-02-26T06:43:57;101515.19;;;-3.04;78.69
51359;BME280;37448;51.588;7.248;2023-02-26T06:45:58;101516.09;;;-3.04;78.90
51359;BME280;37448;51.588;7.248;2023-02-26T06:47:58;101521.91;;;-3.06;79.84
51359;BME280;37448;51.588;7.248;2023-02-26T06:49:58;101532.13;;;-3.06;79.32
51359;BME280;37448;51.588;7.248;2023-02-26T06:51:59;101529.44;;;-3.09;78.31
51359;BME280;37448;51.588;7.248;2023-02-26T06:53:59;101545.56;;;-3.10;78.36
51359;BME280;37448;51.588;7.248;2023-02-26T06:56:00;101542.22;;;-3.09;78.76
51359;BME280;37448;51.588;7.248;2023-02-26T06:58:00;101542.22;;;-3.09;78.32
51359;BME280;37448;51.588;7.248;2023-02-26T07:00:00;101555.94;;;-3.07;78.52
51359;BME280;37448;51.588;7.248;2023-02-26T07:02:01;101561.19;;;-3.04;78.80
51359;BME280;37448;51.588;7.248;2023-02-26T07:04:01;101551.88;;;-3.04;77.96
51359;BME280;37448;51.588;7.248;2023-02-26T07:06:02;101563.13;;;-3.00;78.52
51359;BME280;37448;51.588;7.248;2023-02-26T07:08:03;101563.13;;;-3.00;78.18
51359;BME280;37448;51.588;7.248;2023-02-26T07:10:05;101570.81;;;-3.00;78.13
51359;BME280;37448;51.588;7.248;2023-02-26T07:12:06;101570.00;;;-2.99;77.61
51359;BME280;37448;51.588;7.248;2023-02-26T07:14:06;101568.41;;;-2.97;78.62
51359;BME280;37448;51.588;7.248;2023-02-26T07:16:07;101570.81;;;-3.00;77.98
51359;BME280;37448;51.588;7.248;2023-02-26T07:18:07;101579.56;;;-2.95;78.41
51359;BME280;37448;51.588;7.248;2023-02-26T07:20:08;101579.63;;;-2.93;78.47
51359;BME280;37448;51.588;7.248;2023-02-26T07:22:09;101579.63;;;-2.93;78.37
51359;BME280;37448;51.588;7.248;2023-02-26T07:24:09;101583.00;;;-2.94;77.71
51359;BME280;37448;51.588;7.248;2023-02-26T07:26:09;101587.44;;;-2.90;78.71
51359;BME280;37448;51.588;7.248;2023-02-26T07:28:10;101591.28;;;-2.82;79.67
51359;BME280;37448;51.588;7.248;2023-02-26T07:30:11;101595.31;;;-2.69;78.58
51359;BME280;37448;51.588;7.248;2023-02-26T07:32:11;101587.72;;;-2.29;78.47
51359;BME280;37448;51.588;7.248;2023-02-26T07:34:12;101596.63;;;-2.03;76.28
51359;BME280;37448;51.588;7.248;2023-02-26T07:36:12;101595.94;;;-1.81;74.11
51359;BME280;37448;51.588;7.248;2023-02-26T07:38:12;101595.03;;;-1.62;73.65
51359;BME280;37448;51.588;7.248;2023-02-26T07:40:13;101601.69;;;-1.26;71.81
51359;BME280;37448;51.588;7.248;2023-02-26T07:42:14;101603.59;;;-0.79;72.82
51359;BME280;37448;51.588;7.248;2023-02-26T07:44:15;101609.72;;;-0.54;70.66
51359;BME280;37448;51.588;7.248;2023-02-26T07:46:16;101617.09;;;-0.18;72.56
51359;BME280;37448;51.588;7.248;2023-02-26T07:48:16;101618.41;;;-0.07;71.25
51359;BME280;37448;51.588;7.248;2023-02-26T07:50:18;101627.03;;;-0.27;68.14
51359;BME280;37448;51.588;7.248;2023-02-26T07:52:18;101628.59;;;0.14;69.42
51359;BME280;37448;51.588;7.248;2023-02-26T07:54:19;101634.50;;;-0.11;68.48
51359;BME280;37448;51.588;7.248;2023-02-26T07:56:19;101641.22;;;-0.15;66.80
51359;BME280;37448;51.588;7.248;2023-02-26T07:58:19;101630.34;;;-0.30;68.20
51359;BME280;37448;51.588;7.248;2023-02-26T08:00:20;101628.16;;;0.26;69.25
51359;BME280;37448;51.588;7.248;2023-02-26T08:02:21;101628.91;;;0.24;65.91
51359;BME280;37448;51.588;7.248;2023-02-26T08:04:22;101627.41;;;0.53;66.84
51359;BME280;37448;51.588;7.248;2023-02-26T08:06:23;101629.31;;;0.83;64.80
51359;BME280;37448;51.588;7.248;2023-02-26T08:08:23;101632.94;;;1.14;66.40
51359;BME280;37448;51.588;7.248;2023-02-26T08:10:23;101630.81;;;1.03;65.73
51359;BME280;37448;51.588;7.248;2023-02-26T08:12:24;101642.16;;;0.83;63.58
51359;BME280;37448;51.588;7.248;2023-02-26T08:14:24;101642.44;;;0.91;63.85
51359;BME280;37448;51.588;7.248;2023-02-26T08:16:24;101642.56;;;1.48;65.17
51359;BME280;37448;51.588;7.248;2023-02-26T08:18:25;101644.03;;;1.67;65.99
51359;BME280;37448;51.588;7.248;2023-02-26T08:20:25;101654.63;;;1.49;63.33
51359;BME280;37448;51.588;7.248;2023-02-26T08:22:25;101655.75;;;1.31;61.68
51359;BME280;37448;51.588;7.248;2023-02-26T08:24:26;101656.69;;;1.07;63.30
51359;BME280;37448;51.588;7.248;2023-02-26T08:26:26;101650.13;;;1.16;62.07
51359;BME280;37448;51.588;7.248;2023-02-26T08:28:27;101664.13;;;1.24;61.65
51359;BME280;37448;51.588;7.248;2023-02-26T08:30:28;101662.38;;;1.78;61.93
51359;BME280;37448;51.588;7.248;2023-02-26T08:32:28;101667.16;;;1.65;62.12
51359;BME280;37448;51.588;7.248;2023-02-26T08:34:29;101659.59;;;2.28;61.72
51359;BME280;37448;51.588;7.248;2023-02-26T08:36:30;101672.97;;;2.45;61.21
51359;BME280;37448;51.588;7.248;2023-02-26T08:38:31;101674.50;;;2.38;58.99
51359;BME280;37448;51.588;7.248;2023-02-26T08:40:31;101677.03;;;2.37;61.02
51359;BME280;37448;51.588;7.248;2023-02-26T08:42:31;101670.88;;;2.32;60.07
51359;BME280;37448;51.588;7.248;2023-02-26T08:44:32;101681.16;;;2.01;58.55
51359;BME280;37448;51.588;7.248;2023-02-26T08:46:33;101678.94;;;2.13;58.78
51359;BME280;37448;51.588;7.248;2023-02-26T08:48:33;101676.25;;;3.02;59.66
51359;BME280;37448;51.588;7.248;2023-02-26T08:50:34;101687.72;;;3.13;57.28
51359;BME280;37448;51.588;7.248;2023-02-26T08:52:34;101686.25;;;2.90;57.12
51359;BME280;37448;51.588;7.248;2023-02-26T08:54:35;101685.81;;;3.06;57.07
51359;BME280;37448;51.588;7.248;2023-02-26T08:56:35;101690.72;;;3.29;56.79
51359;BME280;37448;51.588;7.248;2023-02-26T08:58:35;101693.63;;;2.77;57.15
51359;BME280;37448;51.588;7.248;2023-02-26T09:00:36;101703.66;;;3.66;56.62
51359;BME280;37448;51.588;7.248;2023-02-26T09:02:37;101702.94;;;2.72;57.51
51359;BME280;37448;51.588;7.248;2023-02-26T09:04:37;101705.53;;;2.72;56.41
51359;BME280;37448;51.588;7.248;2023-02-26T09:06:37;101711.72;;;4.16;60.38
51359;BME280;37448;51.588;7.248;2023-02-26T09:08:38;101710.50;;;4.00;54.65
51359;BME280;37448;51.588;7.248;2023-02-26T09:10:38;101710.34;;;3.94;53.79
51359;BME280;37448;51.588;7.248;2023-02-26T09:12:38;101720.16;;;3.72;54.56
51359;BME280;37448;51.588;7.248;2023-02-26T09:14:39;101717.09;;;3.52;53.80
51359;BME280;37448;51.588;7.248;2023-02-26T09:16:39;101726.31;;;4.14;53.79
51359;BME280;37448;51.588;7.248;2023-02-26T09:18:40;101732.88;;;3.63;58.19
51359;BME280;37448;51.588;7.248;2023-02-26T09:20:42;101734.38;;;4.28;55.88
51359;BME280;37448;51.588;7.248;2023-02-26T09:22:43;101723.25;;;3.57;53.26
51359;BME280;37448;51.588;7.248;2023-02-26T09:24:43;101737.25;;;3.32;53.66
51359;BME280;37448;51.588;7.248;2023-02-26T09:26:43;101740.31;;;4.66;58.18
51359;BME280;37448;51.588;7.248;2023-02-26T09:28:44;101730.47;;;4.08;55.35
51359;BME280;37448;51.588;7.248;2023-02-26T09:30:44;101740.81;;;4.08;55.19
51359;BME280;37448;51.588;7.248;2023-02-26T09:32:44;101740.47;;;4.72;60.30
51359;BME280;37448;51.588;7.248;2023-02-26T09:34:45;101752.53;;;5.17;53.51
51359;BME280;37448;51.588;7.248;2023-02-26T09:36:45;101736.84;;;5.07;54.55
51359;BME280;37448;51.588;7.248;2023-02-26T09:38:46;101745.75;;;4.78;51.94
51359;BME280;37448;51.588;7.248;2023-02-26T09:43:14;101744.88;;;5.22;51.62
51359;BME280;37448;51.588;7.248;2023-02-26T09:45:31;101753.53;;;4.80;52.22
51359;BME280;37448;51.588;7.248;2023-02-26T09:47:40;101754.25;;;3.93;50.67
51359;BME280;37448;51.588;7.248;2023-02-26T09:51:50;101761.69;;;4.17;53.27
51359;BME280;37448;51.588;7.248;2023-02-26T09:53:52;101784.00;;;4.50;51.95
51359;BME280;37448;51.588;7.248;2023-02-26T09:55:55;101764.66;;;3.96;49.12
51359;BME280;37448;51.588;7.248;2023-02-26T09:58:00;101772.88;;;3.44;51.89
51359;BME280;37448;51.588;7.248;2023-02-26T10:00:21;101767.47;;;4.05;50.10
51359;BME280;37448;51.588;7.248;2023-02-26T10:02:37;101770.28;;;3.44;50.13
51359;BME280;37448;51.588;7.248;2023-02-26T10:11:21;101775.25;;;3.36;50.18
51359;BME280;37448;51.588;7.248;2023-02-26T10:15:49;101783.97;;;4.10;50.75
51359;BME280;37448;51.588;7.248;2023-02-26T10:18:10;101782.81;;;3.99;49.02
51359;BME280;37448;51.588;7.248;2023-02-26T10:22:51;101792.25;;;3.28;49.62
51359;BME280;37448;51.588;7.248;2023-02-26T10:25:01;101793.19;;;3.32;48.04
51359;BME280;37448;51.588;7.248;2023-02-26T10:27:11;101795.97;;;3.07;48.10
51359;BME280;37448;51.588;7.248;2023-02-26T10:29:33;101798.88;;;3.20;48.91
51359;BME280;37448;51.588;7.248;2023-02-26T10:31:47;101805.03;;;2.93;50.24
51359;BME280;37448;51.588;7.248;2023-02-26T10:34:14;101798.91;;;3.53;54.56
51359;BME280;37448;51.588;7.248;2023-02-26T10:36:23;101819.19;;;3.38;50.85
51359;BME280;37448;51.588;7.248;2023-02-26T10:38:27;101811.31;;;2.72;49.43
51359;BME280;37448;51.588;7.248;2023-02-26T10:40:33;101810.78;;;3.14;48.87
51359;BME280;37448;51.588;7.248;2023-02-26T10:42:47;101820.81;;;3.04;48.86
51359;BME280;37448;51.588;7.248;2023-02-26T10:44:59;101817.56;;;2.51;48.57
51359;BME280;37448;51.588;7.248;2023-02-26T10:49:48;101813.59;;;2.34;50.43
51359;BME280;37448;51.588;7.248;2023-02-26T10:51:51;101812.41;;;2.51;51.95
51359;BME280;37448;51.588;7.248;2023-02-26T10:54:01;101834.09;;;2.03;50.72
51359;BME280;37448;51.588;7.248;2023-02-26T10:56:13;101813.81;;;1.86;50.96
51359;BME280;37448;51.588;7.248;2023-02-26T10:58:22;101825.13;;;1.92;51.19
51359;BME280;37448;51.588;7.248;2023-02-26T11:00:23;101823.00;;;1.54;50.22
51359;BME280;37448;51.588;7.248;2023-02-26T11:02:36;101825.53;;;1.52;51.63
51359;BME280;37448;51.588;7.248;2023-02-26T11:04:37;101835.06;;;1.55;53.19
51359;BME280;37448;51.588;7.248;2023-02-26T11:06:43;101826.31;;;1.50;52.55
51359;BME280;37448;51.588;7.248;2023-02-26T11:08:48;101825.84;;;1.62;53.32
51359;BME280;37448;51.588;7.248;2023-02-26T11:10:52;101829.28;;;1.36;49.85
51359;BME280;37448;51.588;7.248;2023-02-26T11:12:52;101833.75;;;1.42;51.16
51359;BME280;37448;51.588;7.248;2023-02-26T11:14:53;101839.50;;;1.35;52.01
51359;BME280;37448;51.588;7.248;2023-02-26T11:16:59;101830.47;;;1.22;50.94
51359;BME280;37448;51.588;7.248;2023-02-26T11:19:00;101835.94;;;1.31;53.20
51359;BME280;37448;51.588;7.248;2023-02-26T11:21:04;101838.25;;;1.23;51.64
51359;BME280;37448;51.588;7.248;2023-02-26T11:23:11;101831.28;;;1.21;52.67
51359;BME280;37448;51.588;7.248;2023-02-26T11:25:13;101841.78;;;1.25;53.49
51359;BME280;37448;51.588;7.248;2023-02-26T11:27:30;101834.09;;;1.27;54.90
51359;BME280;37448;51.588;7.248;2023-02-26T11:29:36;101834.09;;;1.27;53.75
51359;BME280;37448;51.588;7.248;2023-02-26T11:31:37;101835.84;;;1.28;53.97
51359;BME280;37448;51.588;7.248;2023-02-26T11:33:49;101829.03;;;1.30;54.14
51359;BME280;37448;51.588;7.248;2023-02-26T11:35:50;101832.84;;;1.16;53.25
51359;BME280;37448;51.588;7.248;2023-02-26T11:37:55;101845.34;;;1.06;53.99
51359;BME280;37448;51.588;7.248;2023-02-26T11:40:02;101833.53;;;1.11;54.38
51359;BME280;37448;51.588;7.248;2023-02-26T11:42:04;101837.75;;;1.09;54.34
51359;BME280;37448;51.588;7.248;2023-02-26T11:44:12;101836.34;;;1.18;56.09
51359;BME280;37448;51.588;7.248;2023-02-26T11:46:14;101830.47;;;1.22;54.90
51359;BME280;37448;51.588;7.248;2023-02-26T11:48:22;101834.59;;;1.17;54.57
51359;BME280;37448;51.588;7.248;2023-02-26T11:50:23;101834.94;;;1.03;55.14